• Join FlightAware (Why Join?)
  • Login
  • US Flag 
10:35PM EDT


 

Airport Tracker/Info


-or-


 

Live Flight TrackerFlight Track Log ✈ FLG3693 ✈ 24-Apr-2013 ✈ KCVG - KSTL

Flight Track Log - Related Links

Times and Time Zones

All times are in EDT time to prevent confusion due to time zone crossing. See the FLG3693 flight status page for this flight to view local times or setup timezone preferences in your user account.

Time Position Orientation Groundspeed Altitude Reporting Facility
EDT Latitude Longitude Course Direction KTS MPH feet Rate Location/Type
11:36AM 39.0500 -84.6833 297° West 135 155 1,500  Level Cincinnati TRACON
11:37AM 39.0500 -84.7167 270° West 154 177 2,500 2,160 Climbing Cincinnati TRACON
11:38AM 39.0500 -84.8167 270° West 242 278 5,400 3,000 Climbing Cincinnati TRACON
11:39AM 38.9773 -84.8842 312° West  Level FlightAware Approximate
11:39AM 39.0500 -84.8833 270° West 238 274 8,500  Level Cincinnati TRACON
11:39AM 39.0461 -84.9106 260° West 236 272 9,100 1,800 Climbing Indianapolis Center
11:40AM 39.0390 -84.9752 311° West  Level FlightAware Approximate
11:40AM 39.0625 -84.9994 283° West 265 305 10,900  Level Indianapolis Center
11:41AM 39.0902 -85.0755 297° West  Level FlightAware Approximate
11:41AM 39.0978 -85.0997 294° West 304 350 12,800  Level Indianapolis Center
11:42AM 39.1375 -85.2072 296° West 329 379 13,700 1,260 Climbing Indianapolis Center
11:43AM 39.1772 -85.3192 295° West 341 392 15,500 1,680 Climbing Indianapolis Center
11:44AM 39.1853 -85.4369 275° West 325 374 17,200 1,680 Climbing Indianapolis Center
11:45AM 39.1961 -85.5494 277° West 316 364 19,000 1,740 Climbing Indianapolis Center
11:46AM 39.2058 -85.6606 276° West 310 357 20,800 1,920 Climbing Indianapolis Center
11:47AM 39.2175 -85.7853 277° West 299 344 23,000 1,680 Climbing Indianapolis Center
11:48AM 39.2261 -85.8900 276° West 293 337 24,300 1,140 Climbing Indianapolis Center
11:49AM 39.2358 -85.9983 277° West 300 345 25,400 780 Climbing Indianapolis Center
11:50AM 39.2442 -86.1081 276° West 304 350 26,000 240 Climbing Indianapolis Center
11:51AM 39.2542 -86.2278 276° West 328 377 26,000  Level Indianapolis Center
11:52AM 39.2647 -86.3533 276° West 346 398 26,000  Level Indianapolis Center
11:53AM 39.2756 -86.4856 276° West 362 417 26,000  Level Indianapolis Center
11:54AM 39.2858 -86.6169 276° West 365 420 26,000  Level Indianapolis Center
11:55AM 39.2967 -86.7506 276° West 370 426 26,000  Level Indianapolis Center
11:56AM 39.3072 -86.8833 276° West 370 426 26,000  Level Indianapolis Center
11:57AM 39.3197 -87.0375 276° West 369 425 26,000  Level Indianapolis Center
11:58AM 39.3289 -87.1647 275° West 357 411 26,000  Level Indianapolis Center
11:59AM 39.3381 -87.2875 276° West 344 396 26,000  Level Indianapolis Center
12:00PM 39.3467 -87.4142 275° West 350 403 26,000  Level Indianapolis Center
12:01PM 39.3553 -87.5425 275° West 356 410 26,000  Level Indianapolis Center
12:03PM 39.3647 -87.6697 276° West 364 419 26,000  Level Indianapolis Center
12:04PM 39.3744 -87.8036 275° West 362 417 26,000  Level Indianapolis Center
12:04PM 39.3847 -87.9264 276° West 361 415 26,000 -720 Level Kansas City Center
12:05PM 39.3889 -88.0506 273° West 355 409 24,700 -1,020 Descending Kansas City Center
12:07PM 39.3636 -88.1586 253° West 325 374 24,000 -360 Descending Kansas City Center
12:08PM 39.3353 -88.2658 251° West 316 364 24,000  Level Kansas City Center
12:09PM 39.3083 -88.3769 253° West 318 366 24,000  Level Kansas City Center
12:10PM 39.2761 -88.4953 251° West 328 377 24,000  Level Kansas City Center
12:11PM 39.2336 -88.6406 249° West 342 394 24,000  Level Kansas City Center
12:12PM 39.2047 -88.7475 251° West 328 377 24,000  Level Kansas City Center
12:13PM 39.1764 -88.8486 250° West 312 359 24,000  Level Kansas City Center
12:14PM 39.1489 -88.9500 251° West 304 350 24,000  Level Kansas City Center
12:15PM 39.1225 -89.0517 252° West 302 348 24,000 -180 Level Kansas City Center
12:16PM 39.0956 -89.1533 251° West 301 346 23,700 -1,260 Descending Kansas City Center
12:16PM 39.0775 -89.1786 227° Southwest 311 358 22,000 -2,640 Descending FAA TRACON SMA TRACON (SMA)
12:17PM 39.0686 -89.2094 250° West 302 348 21,300 -2,340 Descending FAA TRACON SMA TRACON (SMA)
12:17PM 39.0606 -89.2483 255° West 294 338 20,500 -2,280 Descending FAA TRACON SMA TRACON (SMA)
12:17PM 39.0522 -89.2778 250° West 287 330 19,800 -1,920 Descending FAA TRACON SMA TRACON (SMA)
12:18PM 39.0447 -89.3081 252° West 288 331 19,200 -2,100 Descending FAA TRACON SMA TRACON (SMA)
12:18PM 39.0372 -89.3475 256° West 294 338 18,400 -2,280 Descending FAA TRACON SMA TRACON (SMA)
12:18PM 39.0292 -89.3792 252° West 298 343 17,700 -2,160 Descending FAA TRACON SMA TRACON (SMA)
12:19PM 39.0225 -89.4106 255° West 297 342 17,000 -2,640 Descending FAA TRACON SMA TRACON (SMA)
12:19PM 39.0125 -89.4483 251° West 294 338 16,000 -2,820 Descending FAA TRACON SMA TRACON (SMA)
12:19PM 39.0067 -89.4797 257° West 291 335 15,100 -2,520 Descending FAA TRACON SMA TRACON (SMA)
12:20PM 38.9997 -89.5097 253° West 288 331 14,300 -2,880 Descending FAA TRACON SMA TRACON (SMA)
12:20PM 38.9825 -89.5439 237° Southwest 294 338 13,200 -3,120 Descending FAA TRACON SMA TRACON (SMA)
12:20PM 38.9675 -89.5694 233° Southwest 295 339 12,300 -2,940 Descending FAA TRACON SMA TRACON (SMA)
12:21PM 38.9486 -89.5928 224° Southwest 303 349 11,300 -3,120 Descending FAA TRACON SMA TRACON (SMA)
12:21PM 38.9272 -89.6222 227° Southwest 299 344 10,200 -2,520 Descending FAA TRACON SMA TRACON (SMA)
12:21PM 38.9136 -89.6461 234° Southwest 279 321 9,600 -1,860 Descending FAA TRACON SMA TRACON (SMA)
12:22PM 38.9019 -89.6700 238° Southwest 263 303 9,000 -2,160 Descending FAA TRACON SMA TRACON (SMA)
12:22PM 38.8842 -89.6986 231° Southwest 260 299 8,200 -1,800 Descending FAA TRACON SMA TRACON (SMA)
12:22PM 38.8736 -89.7225 240° Southwest 255 293 7,800 -1,320 Descending FAA TRACON SMA TRACON (SMA)
12:23PM 38.8603 -89.7461 234° Southwest 261 300 7,300 -1,200 Descending FAA TRACON SMA TRACON (SMA)
12:23PM 38.8450 -89.7761 237° Southwest 261 300 7,000 -480 Descending FAA TRACON SMA TRACON (SMA)
12:23PM 38.8322 -89.8003 236° Southwest 264 304 7,000  Level FAA TRACON SMA TRACON (SMA)
12:24PM 38.8189 -89.8242 234° Southwest 268 308 7,000  Level FAA TRACON SMA TRACON (SMA)
12:24PM 38.8031 -89.8539 236° Southwest 266 306 7,000  Level FAA TRACON SMA TRACON (SMA)
12:24PM 38.7906 -89.8772 236° Southwest 259 298 7,000  Level FAA TRACON SMA TRACON (SMA)
12:25PM 38.7775 -89.9006 234° Southwest 258 297 7,000 -180 Level FAA TRACON SMA TRACON (SMA)
12:25PM 38.7619 -89.9300 236° Southwest 263 303 6,900 -600 Descending FAA TRACON SMA TRACON (SMA)
12:25PM 38.7500 -89.9536 237° Southwest 260 299 6,600 -1,080 Descending FAA TRACON SMA TRACON (SMA)
12:26PM 38.7367 -89.9769 234° Southwest 262 302 6,200 -1,320 Descending FAA TRACON SMA TRACON (SMA)
12:26PM 38.7206 -90.0064 235° Southwest 264 304 5,700 -1,500 Descending FAA TRACON SMA TRACON (SMA)
12:26PM 38.7069 -90.0308 234° Southwest 266 306 5,200 -1,500 Descending FAA TRACON SMA TRACON (SMA)
12:27PM 38.6956 -90.0542 238° Southwest 260 299 4,700 -1,680 Descending FAA TRACON SMA TRACON (SMA)
12:27PM 38.6803 -90.0822 235° Southwest 249 287 4,100 -1,680 Descending FAA TRACON SMA TRACON (SMA)
12:27PM 38.6692 -90.1028 235° Southwest 235 270 3,600 -900 Descending FAA TRACON SMA TRACON (SMA)
12:28PM 38.6600 -90.1228 240° Southwest 218 251 3,500 -300 Descending FAA TRACON SMA TRACON (SMA)